Cdry Blue — ICOB — position and weather

sailwx.info

Track history (hours):
 
Tides and Currents Weather Stations Pressure Air Temp Water Temp Dewpoint Dewpoint Depression Visibility Wind Speed Wind Dir Waves Ship Positions

Cdry Blue

Last reported at 2016-Aug-27 07:16 UTC. Time now 2016-Aug-29 12:56 UTC.
Position N 42°56' E 015°11'.

Length 108 m; draft 4.7 m.

Type: Cargo ship. MMSI: 247289300.

Date/timePositionNaut miles runAvg speedWind from/ knotsBaromVisibWave heightAir tempDewpointWater temp
2016-Aug-27 07:16N 42°56' E 015°11'3613.0
2016-Aug-27 04:31N 43°21' E 014°37'1212.7
2016-Aug-27 03:33N 43°30' E 014°25'1313.3
2016-Aug-27 02:33N 43°39' E 014°12'1813.1
2016-Aug-27 01:12N 43°51' E 013°53'913.2
2016-Aug-27 00:31N 43°57' E 013°43'1313.2
2016-Aug-26 23:33N 44°04' E 013°29'1312.9
2016-Aug-26 22:33N 44°11' E 013°14'2612.9
2016-Aug-26 20:33N 44°24' E 012°43'20 9.9
2016-Aug-26 18:30N 44°27' E 012°15'  
2016-Aug-17 17:32N 44°12' E 013°14'1411.8
2016-Aug-17 16:19N 44°18' E 012°57'911.8
2016-Aug-17 15:33N 44°23' E 012°46'1312.2
2016-Aug-17 14:31N 44°29' E 012°30'  
Track history (hours):
 
Tides and Currents Weather Stations Pressure Air Temp Water Temp Dewpoint Dewpoint Depression Visibility Wind Speed Wind Dir Waves Ship Positions

Cdry Blue

Last reported at 2016-Aug-27 07:16 UTC. Time now 2016-Aug-29 12:56 UTC.
Position N 42°56' E 015°11'.

Length 108 m; draft 4.7 m.

Type: Cargo ship. MMSI: 247289300.

Date/timePositionNaut miles runAvg speedWind from/ knotsBaromVisibWave heightAir tempDewpointWater temp
2016-Aug-27 07:16N 42°56' E 015°11'3613.0
2016-Aug-27 04:31N 43°21' E 014°37'1212.7
2016-Aug-27 03:33N 43°30' E 014°25'1313.3
2016-Aug-27 02:33N 43°39' E 014°12'1813.1
2016-Aug-27 01:12N 43°51' E 013°53'913.2
2016-Aug-27 00:31N 43°57' E 013°43'1313.2
2016-Aug-26 23:33N 44°04' E 013°29'1312.9
2016-Aug-26 22:33N 44°11' E 013°14'2612.9
2016-Aug-26 20:33N 44°24' E 012°43'20 9.9
2016-Aug-26 18:30N 44°27' E 012°15'  
2016-Aug-17 17:32N 44°12' E 013°14'1411.8
2016-Aug-17 16:19N 44°18' E 012°57'911.8
2016-Aug-17 15:33N 44°23' E 012°46'1312.2
2016-Aug-17 14:31N 44°29' E 012°30'  

Dump ship's entire track history